createdAt,value
2022-08-26T00:02:07.381Z,11.50
2022-08-26T00:04:36.115Z,12.18
2022-08-26T00:07:05.269Z,13.00
2022-08-26T00:09:37.289Z,11.88
2022-08-26T00:12:09.474Z,12.15
2022-08-26T00:14:40.179Z,11.80
2022-08-26T00:17:08.624Z,12.52
2022-08-26T00:19:35.990Z,12.98
2022-08-26T00:22:03.415Z,12.85
2022-08-26T00:24:30.795Z,13.50
2022-08-26T00:26:58.522Z,14.98
2022-08-26T00:29:26.202Z,15.60
2022-08-26T00:31:53.422Z,16.08
2022-08-26T00:34:20.625Z,16.27
2022-08-26T00:36:51.847Z,13.18
2022-08-26T00:39:20.659Z,13.05
2022-08-26T00:41:48.854Z,14.68
2022-08-26T00:44:16.843Z,13.93
2022-08-26T00:46:49.087Z,15.68
2022-08-26T00:49:22.642Z,17.00
2022-08-26T00:51:53.315Z,17.17
2022-08-26T00:54:26.949Z,21.25
2022-08-26T00:57:02.527Z,26.15
2022-08-26T00:59:33.260Z,25.15
2022-08-26T01:02:02.671Z,25.42
2022-08-26T01:04:33.592Z,27.38
2022-08-26T01:07:01.745Z,26.88
2022-08-26T01:09:30.962Z,25.38
2022-08-26T01:12:01.264Z,26.70
2022-08-26T01:14:36.752Z,26.63
2022-08-26T01:17:07.745Z,29.10
2022-08-26T01:19:46.183Z,30.30
2022-08-26T01:22:26.593Z,29.42
2022-08-26T01:24:58.851Z,32.35
2022-08-26T01:27:32.598Z,28.58
2022-08-26T01:30:02.244Z,28.98
2022-08-26T01:32:32.008Z,30.35
2022-08-26T01:34:59.998Z,27.13
2022-08-26T01:37:35.305Z,28.02
2022-08-26T01:40:06.957Z,26.08
2022-08-26T01:42:35.713Z,27.63
2022-08-26T01:45:15.828Z,21.92
2022-08-26T01:47:44.923Z,23.45
2022-08-26T01:50:27.429Z,21.95
2022-08-26T01:52:58.317Z,21.85
2022-08-26T01:55:32.112Z,23.02
2022-08-26T01:58:04.588Z,19.48
2022-08-26T02:00:34.678Z,22.92
2022-08-26T02:03:17.086Z,20.75
2022-08-26T02:05:54.923Z,20.48
2022-08-26T02:08:28.155Z,21.30
2022-08-26T02:10:55.671Z,21.70
2022-08-26T02:13:26.976Z,22.48
2022-08-26T02:15:56.549Z,27.90
2022-08-26T02:18:25.293Z,26.13
2022-08-26T02:20:55.169Z,24.98
2022-08-26T02:23:24.419Z,23.60
2022-08-26T02:26:04.450Z,23.10
2022-08-26T02:28:39.394Z,24.60
2022-08-26T02:31:08.146Z,24.08
2022-08-26T02:33:43.065Z,27.05
2022-08-26T02:36:13.374Z,29.90
2022-08-26T02:38:40.980Z,30.27
2022-08-26T02:41:11.414Z,32.50
2022-08-26T02:43:38.662Z,30.02
2022-08-26T02:46:07.382Z,28.85
2022-08-26T02:48:35.578Z,27.85
2022-08-26T02:51:03.992Z,28.63
2022-08-26T02:53:35.451Z,28.55
2022-08-26T02:56:04.459Z,25.92
2022-08-26T02:58:31.973Z,25.33
2022-08-26T03:01:01.554Z,24.80
2022-08-26T03:03:29.050Z,23.50
2022-08-26T03:05:57.829Z,23.20
2022-08-26T03:08:26.261Z,24.13
2022-08-26T03:10:55.767Z,26.83
2022-08-26T03:13:23.744Z,24.23
2022-08-26T03:15:53.955Z,24.02
2022-08-26T03:18:21.374Z,24.20
2022-08-26T03:20:48.763Z,21.95
2022-08-26T03:23:16.242Z,24.13
2022-08-26T03:25:43.518Z,21.80
2022-08-26T03:28:10.917Z,21.20
2022-08-26T03:30:45.111Z,22.20
2022-08-26T03:33:14.386Z,20.45
2022-08-26T03:35:44.250Z,20.55
2022-08-26T03:38:12.082Z,19.70
2022-08-26T03:40:40.503Z,20.23
2022-08-26T03:43:10.083Z,20.95
2022-08-26T03:45:38.150Z,19.35
2022-08-26T03:48:06.094Z,19.13
2022-08-26T03:50:36.376Z,16.85
2022-08-26T03:53:04.285Z,18.00
2022-08-26T03:55:35.061Z,16.88
2022-08-26T03:58:02.566Z,17.63
2022-08-26T04:00:30.525Z,17.48
2022-08-26T04:02:58.120Z,16.80
2022-08-26T04:05:27.094Z,18.23
2022-08-26T04:07:56.057Z,17.40
2022-08-26T04:10:28.971Z,16.90
2022-08-26T04:13:00.724Z,18.58
2022-08-26T04:15:29.393Z,20.15
2022-08-26T04:17:57.555Z,22.08
2022-08-26T04:20:26.246Z,19.42
2022-08-26T04:22:53.945Z,21.13
2022-08-26T04:25:22.605Z,19.33
2022-08-26T04:27:52.872Z,18.60
2022-08-26T04:30:38.218Z,19.15
2022-08-26T04:33:12.928Z,20.58
2022-08-26T04:35:41.236Z,21.10
2022-08-26T04:38:12.035Z,16.23
2022-08-26T04:40:46.702Z,17.10
2022-08-26T04:43:15.502Z,16.65
2022-08-26T04:45:43.847Z,15.77
2022-08-26T04:48:11.475Z,16.42
2022-08-26T04:50:44.193Z,17.30
2022-08-26T04:53:16.846Z,16.33
2022-08-26T04:55:45.181Z,15.52
2022-08-26T04:58:17.489Z,15.05
2022-08-26T05:00:46.994Z,17.45
2022-08-26T05:03:17.619Z,15.73
2022-08-26T05:05:50.759Z,15.27
2022-08-26T05:08:20.571Z,13.95
2022-08-26T05:10:52.408Z,13.82
2022-08-26T05:13:21.328Z,14.27
2022-08-26T05:16:01.171Z,13.70
2022-08-26T05:18:39.199Z,13.32
2022-08-26T05:21:23.144Z,11.90
2022-08-26T05:23:52.066Z,11.68
2022-08-26T05:26:23.017Z,13.13
2022-08-26T05:28:54.658Z,13.43
2022-08-26T05:31:26.743Z,12.10
2022-08-26T05:33:55.074Z,12.75
2022-08-26T05:36:26.928Z,12.88
2022-08-26T05:38:56.156Z,13.05
2022-08-26T05:41:34.259Z,12.20
2022-08-26T05:44:08.770Z,10.88
2022-08-26T05:46:42.541Z,10.18
2022-08-26T05:49:14.467Z,11.18
2022-08-26T05:51:52.167Z,10.50
2022-08-26T05:54:21.942Z,9.50
2022-08-26T05:56:52.112Z,8.65
2022-08-26T05:59:21.259Z,8.85
2022-08-26T06:01:57.417Z,9.10
2022-08-26T06:04:27.215Z,8.52
2022-08-26T06:07:00.730Z,7.13
2022-08-26T06:09:38.612Z,7.90
2022-08-26T06:12:07.565Z,8.23
2022-08-26T06:14:37.509Z,7.57
2022-08-26T06:17:05.165Z,7.03
2022-08-26T06:19:34.379Z,6.53
2022-08-26T06:22:23.631Z,7.18
2022-08-26T06:25:11.950Z,6.68
2022-08-26T06:27:39.304Z,6.18
2022-08-26T06:30:07.507Z,5.55
2022-08-26T06:32:34.916Z,5.05
2022-08-26T06:35:02.651Z,5.50
2022-08-26T06:37:30.303Z,6.15
2022-08-26T06:39:57.964Z,6.85
2022-08-26T06:42:25.444Z,5.82
2022-08-26T06:44:54.304Z,5.97
2022-08-26T06:47:22.311Z,5.95
2022-08-26T06:49:51.102Z,5.38
2022-08-26T06:52:22.917Z,5.32
2022-08-26T06:54:51.838Z,4.90
2022-08-26T06:57:20.524Z,4.88
2022-08-26T06:59:51.259Z,4.53
2022-08-26T07:02:19.688Z,4.47
2022-08-26T07:04:48.620Z,4.20
2022-08-26T07:07:18.774Z,4.68
2022-08-26T07:09:52.525Z,4.25
2022-08-26T07:12:20.768Z,3.83
2022-08-26T07:14:48.599Z,4.43
2022-08-26T07:17:16.567Z,3.17
2022-08-26T07:19:44.210Z,4.90
2022-08-26T07:22:12.700Z,4.50
2022-08-26T07:24:42.539Z,5.03
2022-08-26T07:27:14.087Z,5.05
2022-08-26T07:29:43.780Z,4.22
2022-08-26T07:32:13.791Z,3.95
2022-08-26T07:34:42.547Z,3.92
2022-08-26T07:37:10.216Z,3.83
2022-08-26T07:39:38.652Z,3.88
2022-08-26T07:42:09.070Z,3.80
2022-08-26T07:44:38.524Z,4.53
2022-08-26T07:47:10.584Z,3.78
2022-08-26T07:49:57.884Z,3.80
2022-08-26T07:52:28.466Z,3.58
2022-08-26T07:54:58.446Z,3.75
2022-08-26T07:57:26.754Z,3.67
2022-08-26T07:59:55.734Z,3.53
2022-08-26T08:02:25.067Z,3.85
2022-08-26T08:04:53.567Z,3.60
2022-08-26T08:07:38.594Z,5.35
2022-08-26T08:10:13.092Z,3.17
2022-08-26T08:12:42.441Z,3.70
2022-08-26T08:15:12.403Z,3.70
2022-08-26T08:17:43.632Z,3.28
2022-08-26T08:20:12.955Z,3.10
2022-08-26T08:22:40.835Z,3.33
2022-08-26T08:25:10.490Z,4.35
2022-08-26T08:27:40.350Z,4.15
2022-08-26T08:30:09.466Z,3.35
2022-08-26T08:32:43.726Z,3.47
2022-08-26T08:35:14.211Z,3.50
2022-08-26T08:37:42.204Z,3.40
2022-08-26T08:40:17.377Z,3.33
2022-08-26T08:42:45.858Z,3.55
2022-08-26T08:45:27.761Z,3.50
2022-08-26T08:47:58.453Z,3.35
2022-08-26T08:50:35.641Z,3.33
2022-08-26T08:53:12.322Z,3.33
2022-08-26T08:55:55.920Z,4.13
2022-08-26T08:58:43.919Z,3.63
2022-08-26T09:01:25.980Z,4.00
2022-08-26T09:04:25.809Z,3.67
2022-08-26T09:10:07.789Z,3.70
2022-08-26T09:12:35.807Z,4.18
2022-08-26T09:15:16.672Z,3.67
2022-08-26T09:17:51.079Z,4.10
2022-08-26T09:20:39.054Z,3.70
2022-08-26T09:23:10.229Z,3.40
2022-08-26T09:25:59.229Z,3.30
2022-08-26T09:28:29.721Z,4.05
2022-08-26T09:31:11.866Z,3.97
2022-08-26T09:33:41.188Z,4.03
2022-08-26T09:36:26.572Z,3.50
2022-08-26T09:38:54.702Z,3.00
2022-08-26T09:41:31.809Z,3.70
2022-08-26T09:44:14.649Z,3.53
2022-08-26T09:46:52.926Z,3.53
2022-08-26T09:49:24.229Z,3.83
2022-08-26T09:52:21.440Z,3.55
2022-08-26T09:55:01.963Z,3.40
2022-08-26T09:57:53.080Z,3.15
2022-08-26T10:00:30.298Z,3.42
2022-08-26T10:03:09.419Z,2.92
2022-08-26T10:05:47.728Z,2.95
2022-08-26T10:08:26.135Z,3.30
2022-08-26T10:10:56.398Z,4.38
2022-08-26T10:13:38.217Z,3.42
2022-08-26T10:16:28.422Z,2.80
2022-08-26T10:19:13.434Z,3.47
2022-08-26T10:21:58.079Z,3.53
2022-08-26T10:24:31.633Z,3.35
2022-08-26T10:27:24.561Z,3.40
2022-08-26T10:29:57.285Z,2.90
2022-08-26T10:32:35.459Z,2.60
2022-08-26T10:35:12.306Z,2.75
2022-08-26T10:37:45.136Z,2.88
2022-08-26T10:40:31.450Z,2.65
2022-08-26T10:43:20.333Z,2.67
2022-08-26T10:45:57.319Z,3.33
2022-08-26T10:48:46.938Z,3.08
2022-08-26T10:51:25.638Z,2.75
2022-08-26T10:54:05.046Z,2.80
2022-08-26T10:56:51.803Z,2.83
2022-08-26T10:59:39.280Z,2.20
2022-08-26T11:02:40.162Z,2.67
2022-08-26T11:05:23.407Z,3.03
2022-08-26T11:07:56.384Z,2.95
2022-08-26T11:10:24.705Z,2.72
2022-08-26T11:13:04.927Z,3.50
2022-08-26T11:15:32.345Z,2.30
2022-08-26T11:18:13.430Z,2.45
2022-08-26T11:20:46.047Z,2.95
2022-08-26T11:23:24.369Z,2.63
2022-08-26T11:26:01.325Z,2.45
2022-08-26T11:28:48.496Z,2.60
2022-08-26T11:31:19.539Z,3.33
2022-08-26T11:33:51.980Z,2.75
2022-08-26T11:36:49.311Z,3.22
2022-08-26T11:39:55.352Z,3.35
2022-08-26T11:42:49.338Z,2.92
2022-08-26T11:45:39.424Z,3.35
2022-08-26T11:48:22.425Z,4.50
2022-08-26T11:51:01.046Z,3.10
2022-08-26T11:53:33.646Z,2.97
2022-08-26T11:56:07.919Z,2.63
2022-08-26T11:58:36.362Z,2.70
2022-08-26T12:01:09.634Z,2.95
2022-08-26T12:03:50.434Z,2.45
2022-08-26T12:06:37.475Z,2.45
2022-08-26T12:09:22.637Z,2.65
2022-08-26T12:11:50.771Z,2.65
2022-08-26T12:14:24.977Z,2.75
2022-08-26T12:16:54.315Z,2.47
2022-08-26T12:19:33.001Z,3.38
2022-08-26T12:22:22.395Z,2.17
2022-08-26T12:25:01.773Z,2.72
2022-08-26T12:27:32.712Z,3.17
2022-08-26T12:30:06.922Z,2.22
2022-08-26T12:32:55.154Z,2.83
2022-08-26T12:35:28.949Z,2.80
2022-08-26T12:37:57.717Z,2.97
2022-08-26T12:40:55.501Z,2.65
2022-08-26T12:43:43.718Z,3.55
2022-08-26T12:46:16.378Z,2.35
2022-08-26T12:48:47.839Z,5.00
2022-08-26T12:51:24.348Z,3.08
2022-08-26T12:53:52.828Z,2.63
2022-08-26T12:56:39.900Z,2.65
2022-08-26T12:59:19.975Z,2.40
2022-08-26T13:01:48.664Z,2.63
2022-08-26T13:04:42.794Z,2.92
2022-08-26T13:07:24.390Z,2.33
2022-08-26T13:09:57.734Z,3.05
2022-08-26T13:12:26.996Z,2.38
2022-08-26T13:14:54.758Z,3.47
2022-08-26T13:17:22.317Z,2.50
2022-08-26T13:19:49.822Z,3.00
2022-08-26T13:22:20.424Z,2.20
2022-08-26T13:24:50.938Z,3.50
2022-08-26T13:27:20.695Z,2.55
2022-08-26T13:29:48.207Z,3.70
2022-08-26T13:32:16.116Z,2.83
2022-08-26T13:34:51.425Z,3.05
2022-08-26T13:37:22.411Z,2.67
2022-08-26T13:40:07.199Z,2.78
2022-08-26T13:42:34.877Z,2.63
2022-08-26T13:45:02.629Z,2.83
2022-08-26T13:47:30.345Z,3.15
2022-08-26T13:49:57.899Z,2.63
2022-08-26T13:52:30.446Z,2.72
2022-08-26T13:55:03.001Z,2.55
2022-08-26T13:57:30.720Z,2.40
2022-08-26T13:59:59.598Z,2.80
2022-08-26T14:02:28.684Z,2.60
2022-08-26T14:04:56.186Z,3.90
2022-08-26T14:07:23.849Z,2.42
2022-08-26T14:09:51.584Z,2.90
2022-08-26T14:12:19.547Z,2.70
2022-08-26T14:14:46.923Z,2.63
2022-08-26T14:17:31.089Z,2.67
2022-08-26T14:19:59.812Z,2.60
2022-08-26T14:22:27.997Z,2.60
2022-08-26T14:24:56.618Z,2.65
2022-08-26T14:27:25.426Z,2.72
2022-08-26T14:29:53.979Z,2.95
2022-08-26T14:32:48.332Z,3.08
2022-08-26T14:35:19.163Z,3.17
2022-08-26T14:37:46.764Z,3.22
2022-08-26T14:40:18.746Z,2.50
2022-08-26T14:42:52.756Z,3.38
2022-08-26T14:45:24.347Z,2.45
2022-08-26T14:47:55.672Z,2.58
2022-08-26T14:50:26.124Z,2.53
2022-08-26T14:53:12.545Z,3.10
2022-08-26T14:55:42.482Z,2.35
2022-08-26T14:58:10.512Z,3.38
2022-08-26T15:00:38.368Z,3.50
2022-08-26T15:03:06.203Z,3.05
2022-08-26T15:05:34.515Z,2.92
2022-08-26T15:08:02.794Z,3.20
2022-08-26T15:10:30.193Z,3.33
2022-08-26T15:12:57.924Z,2.92
2022-08-26T15:15:27.576Z,3.72
2022-08-26T15:17:58.301Z,3.38
2022-08-26T15:20:25.914Z,3.20
2022-08-26T15:22:53.659Z,3.13
2022-08-26T15:25:21.211Z,3.10
2022-08-26T15:27:48.806Z,2.80
2022-08-26T15:30:16.782Z,3.58
2022-08-26T15:32:44.324Z,3.00
2022-08-26T15:35:11.917Z,3.35
2022-08-26T15:37:39.316Z,2.50
2022-08-26T15:40:09.400Z,2.60
2022-08-26T15:42:37.578Z,2.38
2022-08-26T15:45:05.138Z,3.63
2022-08-26T15:47:32.519Z,3.25
2022-08-26T15:50:12.039Z,3.08
2022-08-26T15:52:39.849Z,2.83
2022-08-26T15:55:07.774Z,3.50
2022-08-26T15:57:35.471Z,3.33
2022-08-26T16:00:03.805Z,4.63
2022-08-26T16:02:39.398Z,3.15
2022-08-26T16:05:07.266Z,3.75
2022-08-26T16:07:34.823Z,3.40
2022-08-26T16:10:02.779Z,3.15
2022-08-26T16:12:30.058Z,2.83
2022-08-26T16:14:57.531Z,2.88
2022-08-26T16:17:25.849Z,3.28
2022-08-26T16:19:53.174Z,3.17
2022-08-26T16:22:20.449Z,3.67
2022-08-26T16:24:49.621Z,3.25
2022-08-26T16:27:16.835Z,2.85
2022-08-26T16:29:44.536Z,3.00
2022-08-26T16:32:12.458Z,3.00
2022-08-26T16:34:56.138Z,3.03
2022-08-26T16:37:24.420Z,3.83
2022-08-26T16:42:35.967Z,3.72
2022-08-26T16:45:04.474Z,3.30
2022-08-26T16:47:33.018Z,2.97
2022-08-26T16:50:00.681Z,3.50
2022-08-26T16:52:28.310Z,2.80
2022-08-26T16:54:58.953Z,3.08
2022-08-26T16:57:26.344Z,3.72
2022-08-26T16:59:54.236Z,3.67
2022-08-26T17:02:21.765Z,3.17
2022-08-26T17:04:50.245Z,3.05
2022-08-26T17:07:17.992Z,3.13
2022-08-26T17:09:45.443Z,3.75
2022-08-26T17:12:12.816Z,4.20
2022-08-26T17:14:40.508Z,3.85
2022-08-26T17:17:08.375Z,4.03
2022-08-26T17:19:39.106Z,3.85
2022-08-26T17:22:15.750Z,3.88
2022-08-26T17:24:43.209Z,4.82
2022-08-26T17:27:10.908Z,4.35
2022-08-26T17:29:38.581Z,4.90
2022-08-26T17:32:05.968Z,4.43
2022-08-26T17:34:33.353Z,3.60
2022-08-26T17:37:00.877Z,5.85
2022-08-26T17:39:28.358Z,7.38
2022-08-26T17:41:55.658Z,3.75
2022-08-26T17:44:24.111Z,4.03
2022-08-26T17:46:51.622Z,4.70
2022-08-26T17:49:19.030Z,3.90
2022-08-26T17:51:46.928Z,4.88
2022-08-26T17:54:15.543Z,4.60
2022-08-26T17:56:42.875Z,4.60
2022-08-26T17:59:10.784Z,4.60
2022-08-26T18:01:39.151Z,4.88
2022-08-26T18:04:06.607Z,4.80
2022-08-26T18:06:34.464Z,4.40
2022-08-26T18:09:01.849Z,4.75
2022-08-26T18:11:31.209Z,5.00
2022-08-26T18:14:00.524Z,4.97
2022-08-26T18:16:29.977Z,5.05
2022-08-26T18:19:00.982Z,4.93
2022-08-26T18:21:30.888Z,5.40
2022-08-26T18:23:58.859Z,5.45
2022-08-26T18:26:35.624Z,5.68
2022-08-26T18:29:04.592Z,5.75
2022-08-26T18:31:32.431Z,6.10
2022-08-26T18:34:01.359Z,5.85
2022-08-26T18:36:35.577Z,6.20
2022-08-26T18:39:05.208Z,7.18
2022-08-26T18:41:39.098Z,7.57
2022-08-26T18:44:08.545Z,8.45
2022-08-26T18:46:38.085Z,8.43
2022-08-26T18:49:06.851Z,10.23
2022-08-26T18:51:35.212Z,10.77
2022-08-26T18:54:06.034Z,10.98
2022-08-26T18:56:35.712Z,11.50
2022-08-26T18:59:05.130Z,11.80
2022-08-26T19:01:34.855Z,9.80
2022-08-26T19:04:04.695Z,8.45
2022-08-26T19:06:35.613Z,8.30
2022-08-26T19:09:05.891Z,7.70
2022-08-26T19:11:37.230Z,7.68
2022-08-26T19:14:08.069Z,7.43
2022-08-26T19:16:37.580Z,8.25
2022-08-26T19:19:05.632Z,7.72
2022-08-26T19:21:34.467Z,6.68
2022-08-26T19:24:05.012Z,6.53
2022-08-26T19:26:33.542Z,7.20
2022-08-26T19:29:05.865Z,7.13
2022-08-26T19:31:48.718Z,7.13
2022-08-26T19:34:20.269Z,6.97
2022-08-26T19:36:49.637Z,6.80
2022-08-26T19:39:17.352Z,7.78
2022-08-26T19:41:44.667Z,7.47
2022-08-26T19:44:38.535Z,7.40
2022-08-26T19:47:08.352Z,7.10
2022-08-26T19:49:36.394Z,6.93
2022-08-26T19:52:05.733Z,7.20
2022-08-26T19:54:34.280Z,7.22
2022-08-26T19:57:02.011Z,6.80
2022-08-26T19:59:29.702Z,7.30
2022-08-26T20:02:00.563Z,7.20
2022-08-26T20:04:30.912Z,9.25
2022-08-26T20:07:00.704Z,9.60
2022-08-26T20:09:34.161Z,9.50
2022-08-26T20:12:03.214Z,9.57
2022-08-26T20:14:31.158Z,9.55
2022-08-26T20:16:58.999Z,9.02
2022-08-26T20:19:45.561Z,10.63
2022-08-26T20:22:15.184Z,9.95
2022-08-26T20:24:43.202Z,10.43
2022-08-26T20:27:11.117Z,10.68
2022-08-26T20:29:38.940Z,10.30
2022-08-26T20:32:08.076Z,9.60
2022-08-26T20:34:36.727Z,9.35
2022-08-26T20:37:04.927Z,9.23
2022-08-26T20:39:32.946Z,9.05
2022-08-26T20:42:00.462Z,9.23
2022-08-26T20:44:28.439Z,10.57
2022-08-26T20:46:56.866Z,10.00
2022-08-26T20:49:24.482Z,9.48
2022-08-26T20:51:53.115Z,9.82
2022-08-26T20:54:26.279Z,9.85
2022-08-26T20:56:58.006Z,10.40
2022-08-26T20:59:26.877Z,13.57
2022-08-26T21:01:54.792Z,11.85
2022-08-26T21:04:25.401Z,13.23
2022-08-26T21:06:54.605Z,12.18
2022-08-26T21:09:23.335Z,11.77
2022-08-26T21:11:51.695Z,11.50
2022-08-26T21:14:20.763Z,9.52
2022-08-26T21:16:48.575Z,10.73
2022-08-26T21:19:18.325Z,16.30
2022-08-26T21:21:48.120Z,15.68
2022-08-26T21:24:16.273Z,16.88
2022-08-26T21:26:44.207Z,18.10
2022-08-26T21:29:13.652Z,18.80
2022-08-26T21:31:46.055Z,17.20
2022-08-26T21:34:17.305Z,18.95
2022-08-26T21:36:46.168Z,21.65
2022-08-26T21:39:14.185Z,14.50
2022-08-26T21:41:43.573Z,15.20
2022-08-26T21:44:12.403Z,17.25
2022-08-26T21:46:40.525Z,15.95
2022-08-26T21:49:10.213Z,17.55
2022-08-26T21:51:40.658Z,15.55
2022-08-26T21:54:11.003Z,15.02
2022-08-26T21:56:46.200Z,14.93
2022-08-26T21:59:18.652Z,15.13
2022-08-26T22:01:46.657Z,16.33
2022-08-26T22:04:14.306Z,12.55
2022-08-26T22:06:44.989Z,12.77
2022-08-26T22:09:13.707Z,12.65
2022-08-26T22:11:41.623Z,12.00
2022-08-26T22:14:09.032Z,11.60
2022-08-26T22:16:37.175Z,10.63
2022-08-26T22:19:04.658Z,10.93
2022-08-26T22:21:32.259Z,9.75
2022-08-26T22:23:59.716Z,13.18
2022-08-26T22:26:29.665Z,13.63
2022-08-26T22:28:59.074Z,12.80
2022-08-26T22:31:38.484Z,13.07
2022-08-26T22:34:09.043Z,11.23
2022-08-26T22:36:42.658Z,10.75
2022-08-26T22:39:12.287Z,10.75
2022-08-26T22:41:40.207Z,10.05
2022-08-26T22:44:07.647Z,10.23
2022-08-26T22:46:36.761Z,10.23
2022-08-26T22:49:04.952Z,9.75
2022-08-26T22:51:32.453Z,9.68
2022-08-26T22:53:59.806Z,9.02
2022-08-26T22:56:27.431Z,9.68
2022-08-26T22:58:54.682Z,9.95
2022-08-26T23:01:22.128Z,9.77
2022-08-26T23:03:49.873Z,9.90
2022-08-26T23:06:17.224Z,10.43
2022-08-26T23:08:46.452Z,10.48
2022-08-26T23:11:15.077Z,11.10
2022-08-26T23:13:42.762Z,10.05
2022-08-26T23:16:11.769Z,10.40
2022-08-26T23:18:41.467Z,10.32
2022-08-26T23:21:09.515Z,10.48
2022-08-26T23:23:38.423Z,10.30
2022-08-26T23:26:07.871Z,10.70
2022-08-26T23:28:36.577Z,10.88
2022-08-26T23:31:05.131Z,11.13
2022-08-26T23:33:51.145Z,10.43
2022-08-26T23:36:22.943Z,9.13
2022-08-26T23:38:52.664Z,9.65
2022-08-26T23:41:23.035Z,9.95
2022-08-26T23:43:51.763Z,9.50
2022-08-26T23:46:20.058Z,10.20
2022-08-26T23:48:48.032Z,9.65
2022-08-26T23:51:33.867Z,10.38
2022-08-26T23:54:01.721Z,10.00
2022-08-26T23:56:29.300Z,9.38
2022-08-26T23:58:57.342Z,10.00
